Time;durP1;ratioP1;P1;durP2;ratioP2;P2;SDS_P1;SDS_P2;PMS_P1;PMS_P2;Temp;Humidity;BMP_temperature;BMP_pressure;BME280_temperature;BME280_humidity;BME280_pressure;Samples;Min_cycle;Max_cycle;Signal;HPM_P1;HPM_P2
2021/09/13 00:02:02;;;;;;;21.17;9.50;;;16.80;97.30;;;;;;5067071;28;20202;-80
2021/09/13 00:04:27;;;;;;;19.70;11.00;;;16.90;97.30;;;;;;5079436;28;20190;-80
2021/09/13 00:06:53;;;;;;;21.10;10.37;;;16.90;97.30;;;;;;5080974;28;20209;-80
2021/09/13 00:09:18;;;;;;;21.87;9.67;;;16.90;97.30;;;;;;5080857;28;20175;-80
2021/09/13 00:11:44;;;;;;;32.23;10.70;;;17.00;97.30;;;;;;5081455;28;20232;-80
2021/09/13 00:14:10;;;;;;;25.47;10.27;;;17.00;97.30;;;;;;5083881;28;20270;-80
2021/09/13 00:16:36;;;;;;;19.30;9.77;;;17.00;97.30;;;;;;5081989;28;20179;-80
2021/09/13 00:19:01;;;;;;;16.37;9.43;;;17.00;97.30;;;;;;5062835;28;20430;-80
2021/09/13 00:21:27;;;;;;;23.03;10.03;;;17.00;97.30;;;;;;5062732;28;20172;-80
2021/09/13 00:23:52;;;;;;;17.87;9.13;;;17.00;97.30;;;;;;5062193;28;20200;-80
2021/09/13 00:26:18;;;;;;;18.10;9.63;;;17.00;97.30;;;;;;5061625;28;20231;-80
2021/09/13 00:28:43;;;;;;;17.57;9.40;;;17.00;97.30;;;;;;5059709;28;20259;-80
2021/09/13 00:31:09;;;;;;;23.67;11.07;;;17.00;97.30;;;;;;5060865;28;20176;-80
2021/09/13 00:33:35;;;;;;;20.40;9.80;;;17.00;97.30;;;;;;5051444;28;20196;-81
2021/09/13 00:36:01;;;;;;;16.57;9.63;;;17.00;97.30;;;;;;5043083;28;20222;-80
2021/09/13 00:38:27;;;;;;;20.90;9.43;;;17.00;97.30;;;;;;5043441;28;20185;-81
2021/09/13 00:40:52;;;;;;;18.40;8.97;;;17.00;97.30;;;;;;5044279;28;20929;-81
2021/09/13 00:43:18;;;;;;;18.03;9.23;;;17.00;97.30;;;;;;5043347;28;20199;-81
2021/09/13 00:45:43;;;;;;;16.27;9.13;;;17.00;97.30;;;;;;5043012;28;20231;-80
2021/09/13 00:48:09;;;;;;;17.93;9.20;;;17.00;97.30;;;;;;5046949;28;20619;-80
2021/09/13 00:50:35;;;;;;;16.00;9.50;;;17.00;97.30;;;;;;5062834;28;20172;-81
2021/09/13 00:53:01;;;;;;;15.40;8.40;;;17.00;97.30;;;;;;5065007;28;20290;-81
2021/09/13 00:55:26;;;;;;;22.40;9.90;;;17.00;97.30;;;;;;5048095;28;20184;-81
2021/09/13 00:57:54;;;;;;;17.40;9.23;;;17.00;97.30;;;;;;5041231;28;20181;-81
2021/09/13 01:00:21;;;;;;;21.30;10.67;;;17.00;97.30;;;;;;5041614;28;20184;-81
2021/09/13 01:02:47;;;;;;;20.97;10.40;;;17.00;97.30;;;;;;5042302;28;20462;-81
2021/09/13 01:05:12;;;;;;;16.83;8.70;;;17.00;97.30;;;;;;5041942;28;20465;-81
2021/09/13 01:07:38;;;;;;;19.67;9.50;;;17.00;97.30;;;;;;5043200;28;20185;-80
2021/09/13 01:10:06;;;;;;;20.27;9.40;;;17.00;97.30;;;;;;5044571;28;20180;-81
2021/09/13 01:12:32;;;;;;;25.40;9.20;;;17.10;97.30;;;;;;5042291;28;20427;-80
2021/09/13 01:14:58;;;;;;;17.90;9.10;;;17.00;97.30;;;;;;5043245;28;20427;-81
2021/09/13 01:17:23;;;;;;;18.57;10.00;;;17.00;97.30;;;;;;5042362;28;20433;-81
2021/09/13 01:19:49;;;;;;;22.07;10.20;;;17.00;97.30;;;;;;5042927;28;20181;-81
2021/09/13 01:22:18;;;;;;;20.63;10.37;;;17.00;97.30;;;;;;5042160;28;20471;-81
2021/09/13 01:24:43;;;;;;;17.10;8.30;;;17.00;97.30;;;;;;5051802;28;20870;-80
2021/09/13 01:27:10;;;;;;;28.60;11.67;;;17.00;97.30;;;;;;5062845;28;20476;-81
2021/09/13 01:29:37;;;;;;;19.13;9.47;;;17.00;97.30;;;;;;5062580;28;20187;-81
2021/09/13 01:32:04;;;;;;;20.03;9.60;;;17.00;97.30;;;;;;5063485;28;20402;-81
2021/09/13 01:34:30;;;;;;;18.40;9.00;;;17.00;97.30;;;;;;5061982;28;20405;-81
2021/09/13 01:36:56;;;;;;;22.40;10.00;;;17.00;97.30;;;;;;5062713;28;20505;-80
2021/09/13 01:39:22;;;;;;;19.87;9.50;;;17.00;97.30;;;;;;5063141;28;20168;-80
2021/09/13 01:41:48;;;;;;;17.27;9.37;;;17.00;97.30;;;;;;5061793;28;20182;-81
2021/09/13 01:44:15;;;;;;;18.97;9.90;;;17.00;97.30;;;;;;5062203;28;20234;-80
2021/09/13 01:46:43;;;;;;;23.80;11.03;;;17.00;97.30;;;;;;5062030;28;20818;-81
2021/09/13 01:49:13;;;;;;;24.13;10.13;;;17.00;97.30;;;;;;5049810;28;20830;-81
2021/09/13 01:51:39;;;;;;;21.00;9.13;;;17.00;97.30;;;;;;5042467;28;20415;-80
2021/09/13 01:54:06;;;;;;;23.80;10.47;;;17.00;97.30;;;;;;5048908;28;20445;-81
2021/09/13 01:56:32;;;;;;;19.30;9.40;;;17.10;97.30;;;;;;5062025;28;20455;-80
2021/09/13 01:58:58;;;;;;;27.93;10.87;;;17.10;97.30;;;;;;5057784;28;21277;-80
2021/09/13 02:01:25;;;;;;;22.20;9.20;;;17.10;97.30;;;;;;5062692;28;20456;-80
2021/09/13 02:03:51;;;;;;;21.73;10.40;;;17.10;97.30;;;;;;5062114;28;20476;-81
2021/09/13 02:06:17;;;;;;;23.13;10.00;;;17.10;97.30;;;;;;5062552;28;20474;-81
2021/09/13 02:08:43;;;;;;;19.20;9.53;;;17.10;97.30;;;;;;5063533;28;20414;-81
2021/09/13 02:11:09;;;;;;;21.33;10.30;;;17.10;97.30;;;;;;5062403;28;20196;-80
2021/09/13 02:13:35;;;;;;;19.50;9.07;;;17.10;97.30;;;;;;5063516;28;20834;-81
2021/09/13 02:16:00;;;;;;;23.83;10.00;;;17.10;97.30;;;;;;5065479;28;20430;-81
2021/09/13 02:18:26;;;;;;;22.50;10.73;;;17.20;97.30;;;;;;5065645;28;20513;-81
2021/09/13 02:20:52;;;;;;;21.47;8.80;;;17.10;97.30;;;;;;5065382;28;20204;-81
2021/09/13 02:23:18;;;;;;;24.43;9.13;;;17.10;97.30;;;;;;5048329;28;20294;-80
2021/09/13 02:25:44;;;;;;;18.13;9.70;;;17.10;97.30;;;;;;5047212;28;20466;-81
2021/09/13 02:28:10;;;;;;;21.93;9.83;;;17.20;97.30;;;;;;5047492;28;20413;-80
2021/09/13 02:30:35;;;;;;;23.63;10.60;;;17.20;97.30;;;;;;5046217;28;20768;-81
2021/09/13 02:33:01;;;;;;;21.10;9.37;;;17.20;97.30;;;;;;5045162;28;20287;-81
2021/09/13 02:35:27;;;;;;;19.23;8.90;;;17.20;97.30;;;;;;5045795;28;20180;-80
2021/09/13 02:37:52;;;;;;;17.20;9.10;;;17.20;97.30;;;;;;5046102;28;20207;-80
2021/09/13 02:40:18;;;;;;;16.50;8.80;;;17.20;97.30;;;;;;5046014;28;20181;-80
2021/09/13 02:42:44;;;;;;;19.60;9.23;;;17.10;97.30;;;;;;5046002;28;20201;-80
2021/09/13 02:45:10;;;;;;;20.90;9.83;;;17.10;97.30;;;;;;5046882;28;20211;-81
2021/09/13 02:47:35;;;;;;;16.27;8.27;;;17.10;97.30;;;;;;5044638;28;20181;-81
2021/09/13 02:50:02;;;;;;;22.33;9.50;;;17.10;97.30;;;;;;5063264;28;20815;-81
2021/09/13 02:52:28;;;;;;;20.30;9.33;;;17.10;97.30;;;;;;5065232;28;20198;-80
2021/09/13 02:54:53;;;;;;;17.67;8.90;;;17.10;97.30;;;;;;5066050;28;20438;-81
2021/09/13 02:57:19;;;;;;;20.90;8.93;;;17.10;97.30;;;;;;5065455;28;20184;-80
2021/09/13 02:59:45;;;;;;;19.40;8.50;;;17.10;97.30;;;;;;5066158;28;20183;-80
2021/09/13 03:02:11;;;;;;;20.23;8.77;;;17.10;97.30;;;;;;5065007;28;20196;-81
2021/09/13 03:04:36;;;;;;;19.00;8.73;;;17.10;97.30;;;;;;5066380;28;20414;-81
2021/09/13 03:07:03;;;;;;;19.73;8.97;;;17.10;97.30;;;;;;5066166;28;20207;-80
2021/09/13 03:09:28;;;;;;;19.43;8.97;;;17.10;97.30;;;;;;5046685;28;20184;-80
2021/09/13 03:11:54;;;;;;;18.33;9.13;;;17.10;97.30;;;;;;5046084;28;20464;-80
2021/09/13 03:14:20;;;;;;;18.00;8.50;;;17.10;97.30;;;;;;5045969;28;20179;-80
2021/09/13 03:16:46;;;;;;;20.43;9.57;;;17.10;97.30;;;;;;5044924;28;20423;-80
2021/09/13 03:19:11;;;;;;;17.80;9.23;;;17.00;97.30;;;;;;5046349;28;20173;-81
2021/09/13 03:21:37;;;;;;;20.83;9.47;;;17.00;97.30;;;;;;5039666;28;20169;-81
2021/09/13 03:24:03;;;;;;;17.47;9.70;;;17.00;97.30;;;;;;5044241;28;20204;-80
2021/09/13 03:26:29;;;;;;;18.03;8.90;;;17.00;97.30;;;;;;5041743;28;20192;-81
2021/09/13 03:28:55;;;;;;;18.53;8.70;;;17.00;97.30;;;;;;5038522;28;20426;-79
2021/09/13 03:31:20;;;;;;;19.40;9.30;;;17.00;97.30;;;;;;5034233;28;20181;-79
2021/09/13 03:33:46;;;;;;;17.67;8.57;;;16.90;97.30;;;;;;5035002;28;20196;-79
2021/09/13 03:36:11;;;;;;;18.23;8.80;;;16.90;97.30;;;;;;5037391;28;20177;-80
2021/09/13 03:38:37;;;;;;;15.20;8.53;;;16.90;97.30;;;;;;5036169;28;20702;-79
2021/09/13 03:41:03;;;;;;;13.57;7.73;;;16.80;97.30;;;;;;5041991;28;20223;-79
2021/09/13 03:43:28;;;;;;;20.83;8.87;;;16.80;97.30;;;;;;5041994;28;20219;-80
2021/09/13 03:45:54;;;;;;;19.33;9.80;;;16.70;97.30;;;;;;5042927;28;20246;-80
2021/09/13 03:48:22;;;;;;;17.47;8.70;;;16.70;97.30;;;;;;5049960;28;20164;-80
2021/09/13 03:50:47;;;;;;;20.27;9.77;;;16.60;97.30;;;;;;5062724;28;20414;-80
2021/09/13 03:53:13;;;;;;;16.97;9.00;;;16.60;97.30;;;;;;5064722;28;20788;-80
2021/09/13 03:55:39;;;;;;;19.40;9.10;;;16.60;97.30;;;;;;5063263;28;20179;-79
2021/09/13 03:58:05;;;;;;;16.17;8.37;;;16.50;97.30;;;;;;5062807;28;20179;-79
2021/09/13 04:00:31;;;;;;;20.83;8.30;;;16.50;97.30;;;;;;5063514;28;20233;-79
2021/09/13 04:02:56;;;;;;;21.90;9.50;;;16.40;97.30;;;;;;5048469;28;20238;-79
2021/09/13 04:05:24;;;;;;;20.67;8.33;;;16.40;97.30;;;;;;5043302;28;20459;-79
2021/09/13 04:12:50;;;;;;;23.30;9.87;;;16.20;97.30;;;;;;5047678;28;20439;-79
2021/09/13 04:15:16;;;;;;;27.07;9.90;;;16.10;97.30;;;;;;5063862;28;20434;-83
2021/09/13 04:17:42;;;;;;;21.30;9.97;;;16.10;97.30;;;;;;5057499;28;20179;-82
2021/09/13 04:20:08;;;;;;;19.40;10.57;;;16.10;97.30;;;;;;5051139;28;20206;-80
2021/09/13 04:22:34;;;;;;;26.23;11.37;;;16.00;97.30;;;;;;5056094;28;20204;-80
2021/09/13 04:25:00;;;;;;;21.93;9.80;;;16.00;97.30;;;;;;5052777;28;20508;-80
2021/09/13 04:27:27;;;;;;;20.07;11.40;;;15.90;97.30;;;;;;5052649;28;20169;-80
2021/09/13 04:29:52;;;;;;;20.90;10.73;;;15.90;97.30;;;;;;5039278;28;20474;-80
2021/09/13 04:32:18;;;;;;;21.33;11.13;;;15.90;97.30;;;;;;5039517;28;20469;-80
2021/09/13 04:34:44;;;;;;;18.97;10.83;;;15.90;97.30;;;;;;5039716;28;20419;-80
2021/09/13 04:37:09;;;;;;;22.03;11.00;;;15.90;97.30;;;;;;5040263;28;20601;-80
2021/09/13 04:39:35;;;;;;;19.47;10.07;;;15.90;97.30;;;;;;5041289;28;20181;-80
2021/09/13 04:42:00;;;;;;;25.57;11.90;;;15.90;97.30;;;;;;5040275;28;20179;-81
2021/09/13 04:44:26;;;;;;;16.70;9.37;;;15.80;97.30;;;;;;5041565;28;20191;-80
2021/09/13 04:46:51;;;;;;;21.03;9.47;;;15.80;97.30;;;;;;5038875;28;20213;-80
2021/09/13 04:49:17;;;;;;;21.10;9.03;;;15.70;97.30;;;;;;5051285;28;20182;-80
2021/09/13 04:51:43;;;;;;;24.33;10.33;;;15.70;97.30;;;;;;5056333;28;20186;-78
2021/09/13 04:54:08;;;;;;;16.97;9.60;;;15.60;97.30;;;;;;5051354;28;20542;-79
2021/09/13 04:56:34;;;;;;;19.87;10.27;;;15.60;97.30;;;;;;5051407;28;20176;-77
2021/09/13 04:58:59;;;;;;;17.00;9.30;;;15.60;97.30;;;;;;5050777;28;20237;-78
2021/09/13 05:01:25;;;;;;;17.67;10.10;;;15.60;97.30;;;;;;5052167;28;20172;-79
2021/09/13 05:03:51;;;;;;;22.87;10.47;;;15.60;97.30;;;;;;5051153;28;20231;-78
2021/09/13 05:06:18;;;;;;;76.87;33.97;;;15.60;97.30;;;;;;5053680;28;20212;-82
2021/09/13 05:08:45;;;;;;;81.90;40.27;;;15.60;97.30;;;;;;5051571;28;20529;-79
2021/09/13 05:11:11;;;;;;;52.43;27.07;;;15.60;97.30;;;;;;5051619;28;20502;-79
2021/09/13 05:13:36;;;;;;;38.00;18.10;;;15.50;97.30;;;;;;5050069;28;20227;-78
2021/09/13 05:16:02;;;;;;;36.80;17.23;;;15.50;97.30;;;;;;5044967;28;20203;-79
2021/09/13 05:18:27;;;;;;;26.83;13.07;;;15.50;97.30;;;;;;5051708;28;20184;-79
2021/09/13 05:20:53;;;;;;;24.60;11.80;;;15.50;97.30;;;;;;5052301;28;20180;-80
2021/09/13 05:23:18;;;;;;;38.50;18.93;;;15.50;97.30;;;;;;5053106;28;20618;-79
2021/09/13 05:25:44;;;;;;;52.93;24.30;;;15.60;97.30;;;;;;5051473;28;20258;-79
2021/09/13 05:28:10;;;;;;;45.67;22.50;;;15.60;97.30;;;;;;5050905;28;20206;-78
2021/09/13 05:30:35;;;;;;;38.07;18.10;;;15.60;97.30;;;;;;5031601;28;20199;-79
2021/09/13 05:33:01;;;;;;;35.63;17.70;;;15.60;97.30;;;;;;5033288;28;20199;-79
2021/09/13 05:35:26;;;;;;;33.20;15.70;;;15.70;97.30;;;;;;5032749;28;20548;-78
2021/09/13 05:37:52;;;;;;;30.17;14.20;;;15.70;97.30;;;;;;5031284;28;20586;-78
2021/09/13 05:40:17;;;;;;;32.60;16.80;;;15.70;97.30;;;;;;5032208;28;20176;-79
2021/09/13 05:42:43;;;;;;;33.80;14.93;;;15.80;97.30;;;;;;5033201;28;20294;-80
2021/09/13 05:45:09;;;;;;;29.73;13.27;;;15.80;97.30;;;;;;5035230;28;20203;-79
2021/09/13 05:47:35;;;;;;;33.00;14.27;;;15.90;97.30;;;;;;5053568;28;20222;-79
2021/09/13 05:50:00;;;;;;;32.57;15.37;;;15.90;97.30;;;;;;5056672;28;20410;-79
2021/09/13 05:52:26;;;;;;;40.53;16.70;;;16.00;97.30;;;;;;5056354;28;20231;-78
2021/09/13 05:54:52;;;;;;;50.33;21.53;;;16.00;97.30;;;;;;5056836;28;20179;-79
2021/09/13 05:57:17;;;;;;;29.63;14.80;;;16.00;97.30;;;;;;5055623;28;20175;-79
2021/09/13 05:59:43;;;;;;;37.00;15.73;;;16.10;97.30;;;;;;5055482;28;20668;-79
2021/09/13 06:02:10;;;;;;;29.43;14.53;;;16.10;97.30;;;;;;5042189;28;20200;-79
2021/09/13 06:04:37;;;;;;;31.83;15.83;;;16.20;97.30;;;;;;5035508;28;20195;-79
2021/09/13 06:07:04;;;;;;;30.67;14.17;;;16.20;97.30;;;;;;5035540;28;20427;-79
2021/09/13 06:09:30;;;;;;;29.03;13.33;;;16.20;97.30;;;;;;5034845;28;20430;-78
2021/09/13 06:11:55;;;;;;;31.07;14.10;;;16.30;97.30;;;;;;5034791;28;20403;-78
2021/09/13 06:14:21;;;;;;;25.73;13.67;;;16.40;97.30;;;;;;5046778;28;20672;-79
2021/09/13 06:16:46;;;;;;;28.80;15.00;;;16.40;97.30;;;;;;5056021;28;20908;-79
2021/09/13 06:19:12;;;;;;;28.93;14.90;;;16.40;97.30;;;;;;5058304;28;20550;-77
2021/09/13 06:21:38;;;;;;;22.27;13.87;;;16.50;97.30;;;;;;5056007;28;20214;-79
2021/09/13 06:24:04;;;;;;;30.50;15.00;;;16.50;97.30;;;;;;5051498;28;20571;-79
2021/09/13 06:26:29;;;;;;;26.80;15.20;;;16.50;97.30;;;;;;5044573;28;20208;-79
2021/09/13 06:28:55;;;;;;;26.07;13.37;;;16.50;97.30;;;;;;5035289;28;20426;-79
2021/09/13 06:31:21;;;;;;;30.50;14.83;;;16.60;97.30;;;;;;5040470;28;20198;-79
2021/09/13 06:33:46;;;;;;;23.70;13.73;;;16.60;97.30;;;;;;5055356;28;20203;-79
2021/09/13 06:36:12;;;;;;;24.80;13.20;;;16.60;97.30;;;;;;5051625;28;20180;-79
2021/09/13 06:38:38;;;;;;;27.07;15.00;;;16.60;97.30;;;;;;5035149;28;20267;-79
2021/09/13 06:41:03;;;;;;;24.70;14.17;;;16.70;97.30;;;;;;5034753;28;20184;-79
2021/09/13 06:43:29;;;;;;;26.47;14.73;;;16.70;97.30;;;;;;5035496;28;20733;-80
2021/09/13 06:46:22;;;;;;;22.73;14.17;;;16.70;97.30;;;;;;5040488;28;20286;-79
2021/09/13 06:48:45;;;;;;;27.33;15.57;;;16.80;97.30;;;;;;5047461;28;20176;-79
2021/09/13 06:51:11;;;;;;;28.30;13.87;;;16.80;97.30;;;;;;5036221;28;20418;-79
2021/09/13 06:53:37;;;;;;;28.27;15.00;;;16.90;97.30;;;;;;5034575;28;20457;-79
2021/09/13 06:56:04;;;;;;;27.10;15.80;;;16.90;97.30;;;;;;5035536;28;20985;-79
2021/09/13 06:58:30;;;;;;;29.77;14.60;;;17.00;97.30;;;;;;5054977;28;20176;-80
2021/09/13 07:00:56;;;;;;;28.13;15.20;;;17.00;97.30;;;;;;5063349;28;20493;-80
2021/09/13 07:03:22;;;;;;;27.53;15.37;;;17.10;97.30;;;;;;5079162;28;20468;-80
2021/09/13 07:05:49;;;;;;;28.33;14.20;;;17.10;97.30;;;;;;5070543;28;20814;-80
2021/09/13 07:08:15;;;;;;;31.37;14.97;;;17.20;97.30;;;;;;5057002;28;20207;-78
2021/09/13 07:10:40;;;;;;;26.30;15.10;;;17.20;97.30;;;;;;5055988;28;20414;-80
2021/09/13 07:13:06;;;;;;;29.67;15.27;;;17.20;97.30;;;;;;5055660;28;20238;-78
2021/09/13 07:15:32;;;;;;;25.10;14.77;;;17.20;97.30;;;;;;5047357;28;20188;-79
2021/09/13 07:17:58;;;;;;;24.27;14.40;;;17.30;97.30;;;;;;5057048;28;20213;-78
2021/09/13 07:20:24;;;;;;;21.83;13.80;;;17.30;97.30;;;;;;5075064;28;20183;-79
2021/09/13 07:22:50;;;;;;;30.87;14.03;;;17.40;97.30;;;;;;5054291;28;20442;-79
2021/09/13 07:25:15;;;;;;;24.40;15.67;;;17.40;97.30;;;;;;5052946;28;20724;-79
2021/09/13 07:27:41;;;;;;;25.40;14.40;;;17.40;97.30;;;;;;5051644;28;20622;-79
2021/09/13 07:30:08;;;;;;;26.53;15.40;;;17.50;97.30;;;;;;5051891;28;20233;-79
2021/09/13 07:32:34;;;;;;;30.10;15.80;;;17.50;97.30;;;;;;5051960;28;20207;-79
2021/09/13 07:34:59;;;;;;;27.87;15.30;;;17.50;97.30;;;;;;5053038;28;20797;-79
2021/09/13 07:37:26;;;;;;;30.03;13.90;;;17.50;97.30;;;;;;5051678;28;20257;-79
2021/09/13 07:39:52;;;;;;;23.03;13.33;;;17.50;97.30;;;;;;5066597;28;20624;-79
2021/09/13 07:42:17;;;;;;;25.57;14.00;;;17.60;97.30;;;;;;5070146;28;20886;-79
2021/09/13 07:44:43;;;;;;;24.53;14.30;;;17.60;97.30;;;;;;5070227;28;20644;-79
2021/09/13 07:47:10;;;;;;;32.50;15.63;;;17.70;97.30;;;;;;5056142;28;20343;-79
2021/09/13 07:49:36;;;;;;;26.23;13.50;;;17.70;97.30;;;;;;5042875;28;20578;-79
2021/09/13 07:52:01;;;;;;;28.90;15.10;;;17.80;97.30;;;;;;5049511;28;20464;-79
2021/09/13 07:54:27;;;;;;;25.00;14.43;;;17.80;97.30;;;;;;5049524;28;20175;-79
2021/09/13 07:56:52;;;;;;;25.80;13.47;;;17.90;97.30;;;;;;5053183;28;20284;-79
2021/09/13 07:59:18;;;;;;;33.73;15.50;;;17.90;97.30;;;;;;5051758;28;20187;-79
2021/09/13 08:01:44;;;;;;;29.20;14.63;;;17.90;97.30;;;;;;5049214;28;20202;-79
2021/09/13 08:04:10;;;;;;;32.83;13.10;;;18.00;97.30;;;;;;5050318;28;20482;-79
2021/09/13 08:06:36;;;;;;;26.43;15.60;;;18.00;97.30;;;;;;5048800;28;20199;-80
2021/09/13 08:09:02;;;;;;;27.40;15.20;;;18.10;97.30;;;;;;5051862;28;20403;-80
2021/09/13 08:11:28;;;;;;;23.70;13.47;;;18.10;97.30;;;;;;5058879;28;20271;-78
2021/09/13 08:13:54;;;;;;;25.30;13.87;;;18.10;97.30;;;;;;5058628;28;20474;-78
2021/09/13 08:16:20;;;;;;;27.43;14.37;;;18.20;97.30;;;;;;5051348;28;20286;-79
2021/09/13 08:18:46;;;;;;;25.03;14.03;;;18.30;97.30;;;;;;5057405;28;20182;-78
2021/09/13 08:21:11;;;;;;;26.10;14.00;;;18.30;97.30;;;;;;5059707;28;20517;-79
2021/09/13 08:23:37;;;;;;;29.63;13.33;;;18.40;97.30;;;;;;5055968;28;20192;-78
2021/09/13 08:26:04;;;;;;;34.03;14.33;;;18.40;97.30;;;;;;5056102;28;20264;-80
2021/09/13 08:28:30;;;;;;;27.03;13.93;;;18.40;97.30;;;;;;5042627;28;20173;-79
2021/09/13 08:30:56;;;;;;;28.70;14.70;;;18.50;97.30;;;;;;5031485;28;20431;-78
2021/09/13 08:33:22;;;;;;;33.37;14.30;;;18.60;97.30;;;;;;5031920;28;20427;-79
2021/09/13 08:35:48;;;;;;;26.10;13.93;;;18.70;97.30;;;;;;5030573;28;20431;-80
2021/09/13 08:38:14;;;;;;;30.67;12.60;;;18.70;97.30;;;;;;5030708;28;20565;-79
2021/09/13 08:40:40;;;;;;;30.73;13.73;;;18.80;97.30;;;;;;5029942;28;20423;-79
2021/09/13 08:43:06;;;;;;;29.83;14.13;;;18.80;97.30;;;;;;5030314;28;20439;-79
2021/09/13 08:48:27;;;;;;;24.83;13.77;;;18.90;97.30;;;;;;5031526;28;20207;-80
2021/09/13 08:51:05;;;;;;;23.67;13.73;;;18.90;97.30;;;;;;5029997;28;20476;-79
2021/09/13 08:53:35;;;;;;;28.87;14.57;;;18.90;97.30;;;;;;5029477;28;20442;-79
2021/09/13 08:56:03;;;;;;;24.17;13.63;;;18.90;97.30;;;;;;5030005;28;20423;-79
2021/09/13 08:58:32;;;;;;;27.20;13.27;;;18.90;97.30;;;;;;5032949;28;20491;-79
2021/09/13 09:00:58;;;;;;;25.90;13.57;;;19.00;97.30;;;;;;5031639;28;20423;-79
2021/09/13 09:03:25;;;;;;;19.93;11.30;;;19.00;97.30;;;;;;5062814;28;20461;-79
2021/09/13 09:05:52;;;;;;;22.90;12.30;;;19.10;97.30;;;;;;5056296;28;20533;-79
2021/09/13 09:08:29;;;;;;;22.53;12.10;;;19.10;97.30;;;;;;5059681;28;20532;-79
2021/09/13 09:10:57;;;;;;;23.40;11.93;;;19.30;97.30;;;;;;5070021;28;20416;-78
2021/09/13 09:13:24;;;;;;;23.60;11.30;;;19.40;97.30;;;;;;5068515;28;20437;-78
2021/09/13 09:15:57;;;;;;;24.23;12.13;;;19.60;97.30;;;;;;5052569;28;20450;-79
2021/09/13 09:18:38;;;;;;;18.57;11.17;;;19.70;97.30;;;;;;5049079;28;20951;-79
2021/09/13 09:21:04;;;;;;;19.87;11.93;;;19.70;97.30;;;;;;5049277;28;20505;-79
2021/09/13 09:23:30;;;;;;;19.33;10.40;;;19.80;97.30;;;;;;5049034;28;20442;-79
2021/09/13 09:26:11;;;;;;;21.33;11.50;;;19.90;97.30;;;;;;5045393;28;20458;-79
2021/09/13 09:28:36;;;;;;;22.03;10.10;;;19.90;97.30;;;;;;5028521;28;20179;-79
2021/09/13 09:31:02;;;;;;;15.47;9.27;;;20.00;97.30;;;;;;5029465;28;20904;-79
2021/09/13 09:33:27;;;;;;;16.63;10.73;;;20.00;97.30;;;;;;5028173;28;20511;-79
2021/09/13 09:35:58;;;;;;;15.37;9.60;;;20.00;97.30;;;;;;5040841;28;20259;-79
2021/09/13 09:38:31;;;;;;;20.33;9.97;;;20.00;97.30;;;;;;5048307;28;20290;-79
2021/09/13 09:41:08;;;;;;;21.03;10.43;;;19.90;97.30;;;;;;5049742;28;20472;-79
2021/09/13 09:44:00;;;;;;;18.57;10.40;;;20.00;97.30;;;;;;5048877;28;20445;-79
2021/09/13 09:46:41;;;;;;;16.27;10.13;;;20.00;97.30;;;;;;5049141;28;20474;-79
2021/09/13 09:49:08;;;;;;;21.70;9.90;;;20.00;97.30;;;;;;5039069;28;20473;-80
2021/09/13 09:51:36;;;;;;;16.23;9.80;;;20.10;97.30;;;;;;5029741;28;20796;-80
2021/09/13 09:54:26;;;;;;;15.53;10.27;;;20.20;97.30;;;;;;5029605;28;20434;-78
2021/09/13 09:57:08;;;;;;;17.13;10.13;;;20.30;97.30;;;;;;5029872;28;20419;-79
2021/09/13 09:59:37;;;;;;;14.80;9.10;;;20.20;97.30;;;;;;5029081;28;20438;-78
2021/09/13 10:02:18;;;;;;;14.20;9.00;;;20.20;97.30;;;;;;5030345;28;20507;-79
2021/09/13 10:04:47;;;;;;;18.77;8.83;;;20.10;97.30;;;;;;5029006;28;20426;-79
2021/09/13 10:07:15;;;;;;;20.80;11.30;;;20.10;97.30;;;;;;5045943;28;20423;-79
2021/09/13 10:09:42;;;;;;;17.30;9.33;;;20.20;97.30;;;;;;5029515;28;20407;-80
2021/09/13 10:12:08;;;;;;;17.57;9.90;;;20.30;97.30;;;;;;5029311;28;20423;-79
2021/09/13 10:14:34;;;;;;;19.20;11.73;;;20.20;97.30;;;;;;5031090;28;20761;-79
2021/09/13 10:17:01;;;;;;;16.80;11.17;;;20.20;97.30;;;;;;5030921;28;20413;-79
2021/09/13 10:19:29;;;;;;;19.67;11.27;;;20.10;97.30;;;;;;5032305;28;20812;-79
2021/09/13 10:21:55;;;;;;;15.53;10.47;;;20.10;97.30;;;;;;5035625;28;20423;-80
2021/09/13 10:24:24;;;;;;;17.73;9.83;;;20.10;97.30;;;;;;5028734;28;20461;-79
2021/09/13 10:26:52;;;;;;;19.00;10.63;;;20.10;97.30;;;;;;5028256;28;20992;-79
2021/09/13 10:29:20;;;;;;;17.93;10.07;;;20.20;97.30;;;;;;5028964;28;20437;-79
2021/09/13 10:31:46;;;;;;;20.10;11.00;;;20.10;97.30;;;;;;5030167;28;20494;-79
2021/09/13 10:34:18;;;;;;;14.30;9.80;;;20.20;97.30;;;;;;5028796;28;20519;-79
2021/09/13 10:37:03;;;;;;;15.33;10.63;;;20.20;97.30;;;;;;5032270;28;20179;-78
2021/09/13 10:40:01;;;;;;;12.93;9.90;;;20.30;97.30;;;;;;5034573;28;20986;-79
2021/09/13 10:42:35;;;;;;;18.43;11.00;;;20.50;97.30;;;;;;5045950;28;20432;-79
2021/09/13 10:45:24;;;;;;;21.70;12.40;;;20.50;97.30;;;;;;5043152;28;20505;-79
2021/09/13 10:47:53;;;;;;;15.27;10.23;;;20.50;96.90;;;;;;5038696;28;20473;-79
2021/09/13 10:50:36;;;;;;;13.33;9.13;;;20.50;97.20;;;;;;5044616;28;20450;-79
2021/09/13 10:53:17;;;;;;;11.73;9.10;;;20.60;96.40;;;;;;5039679;28;20792;-79
2021/09/13 10:55:54;;;;;;;13.00;8.40;;;20.60;96.90;;;;;;5037633;28;20415;-79
2021/09/13 10:58:35;;;;;;;12.63;7.67;;;20.80;96.20;;;;;;5042521;28;20417;-79
2021/09/13 11:01:06;;;;;;;16.87;9.13;;;20.90;95.80;;;;;;5046158;28;20433;-79
2021/09/13 11:03:37;;;;;;;14.00;8.20;;;21.00;95.70;;;;;;5049754;28;21007;-79
2021/09/13 11:06:06;;;;;;;10.43;7.10;;;21.20;95.70;;;;;;5051717;28;20543;-80
2021/09/13 11:08:38;;;;;;;11.33;7.83;;;21.20;96.10;;;;;;5051693;28;20433;-79
2021/09/13 11:11:34;;;;;;;9.80;6.63;;;21.20;94.40;;;;;;5046910;28;20421;-79
2021/09/13 11:14:07;;;;;;;10.70;7.70;;;21.00;95.10;;;;;;5030505;28;20471;-79
2021/09/13 11:16:42;;;;;;;12.40;7.93;;;20.90;95.40;;;;;;5044683;28;20924;-79
2021/09/13 11:19:11;;;;;;;10.33;7.07;;;20.90;95.40;;;;;;5052246;28;20947;-79
2021/09/13 11:21:48;;;;;;;13.60;7.73;;;20.90;96.60;;;;;;5051986;28;20525;-78
2021/09/13 11:24:37;;;;;;;11.13;7.17;;;20.90;95.40;;;;;;5052532;28;20433;-78
2021/09/13 11:27:05;;;;;;;12.27;8.00;;;20.80;95.20;;;;;;5053231;28;20472;-78
2021/09/13 11:29:36;;;;;;;14.17;8.23;;;20.80;95.60;;;;;;5051456;28;20464;-79
2021/09/13 11:32:07;;;;;;;12.70;7.40;;;20.80;96.30;;;;;;5051749;28;20851;-79
2021/09/13 11:34:40;;;;;;;17.87;8.93;;;20.90;96.30;;;;;;5051559;28;20469;-79
2021/09/13 11:37:16;;;;;;;21.03;8.63;;;21.00;96.60;;;;;;5052223;28;20443;-81
2021/09/13 11:39:47;;;;;;;14.10;7.27;;;21.20;96.30;;;;;;5051902;28;20951;-79
2021/09/13 11:42:16;;;;;;;13.63;7.80;;;21.20;95.30;;;;;;5050874;28;20437;-79
2021/09/13 11:44:51;;;;;;;12.00;7.60;;;21.20;95.20;;;;;;5051155;28;20429;-79
2021/09/13 11:47:22;;;;;;;12.53;8.00;;;21.20;94.60;;;;;;5050237;28;20950;-78
2021/09/13 11:49:51;;;;;;;19.30;7.47;;;21.20;95.00;;;;;;5041261;28;21146;-79
2021/09/13 11:52:28;;;;;;;13.03;7.50;;;21.20;95.40;;;;;;5048559;28;20442;-79
2021/09/13 11:55:06;;;;;;;14.70;7.53;;;21.10;94.90;;;;;;5052171;28;20424;-79
2021/09/13 11:57:56;;;;;;;14.83;7.83;;;21.20;94.30;;;;;;5050003;28;20418;-79
2021/09/13 12:00:23;;;;;;;13.83;8.30;;;21.20;95.10;;;;;;5040240;28;20839;-78
2021/09/13 12:03:05;;;;;;;12.20;8.00;;;21.30;94.30;;;;;;5040781;28;21007;-79
2021/09/13 12:05:34;;;;;;;11.40;7.33;;;21.40;94.10;;;;;;5031418;28;20473;-79
2021/09/13 12:08:02;;;;;;;11.77;6.87;;;21.40;94.20;;;;;;5032845;28;20407;-79
2021/09/13 12:10:31;;;;;;;15.83;7.13;;;21.40;94.60;;;;;;5049228;28;20454;-80
2021/09/13 12:13:10;;;;;;;11.20;7.10;;;21.60;96.10;;;;;;5054091;28;20461;-80
2021/09/13 12:15:36;;;;;;;15.50;7.80;;;21.90;95.50;;;;;;5052299;28;20543;-80
2021/09/13 12:18:09;;;;;;;11.03;7.37;;;22.10;91.90;;;;;;5046588;28;21015;-79
2021/09/13 12:20:38;;;;;;;11.87;5.83;;;22.30;94.40;;;;;;5050756;28;20422;-79
2021/09/13 12:23:09;;;;;;;14.53;7.30;;;22.40;93.20;;;;;;5051074;28;20490;-79
2021/09/13 12:25:45;;;;;;;13.07;6.47;;;22.40;91.40;;;;;;5044053;28;20485;-79
2021/09/13 12:28:12;;;;;;;9.67;6.80;;;22.50;91.60;;;;;;5045930;28;20788;-79
2021/09/13 12:30:41;;;;;;;12.40;6.13;;;22.50;92.00;;;;;;5051114;28;20438;-80
2021/09/13 12:33:11;;;;;;;9.47;5.70;;;22.40;90.30;;;;;;5048613;28;20525;-79
2021/09/13 12:35:41;;;;;;;10.63;7.00;;;22.20;91.10;;;;;;5052625;28;20414;-79
2021/09/13 12:38:12;;;;;;;11.33;6.53;;;22.10;90.60;;;;;;5043819;28;21072;-78
2021/09/13 12:40:52;;;;;;;13.10;5.53;;;22.00;91.20;;;;;;5035448;28;20565;-79
2021/09/13 12:43:21;;;;;;;13.50;6.40;;;22.00;92.40;;;;;;5045876;28;20478;-79